createdAt,value
2017-02-06T00:00:59.558Z,1004.43
2017-02-06T00:02:08.632Z,1004.48
2017-02-06T00:03:18.125Z,1004.49
2017-02-06T00:04:26.822Z,1004.53
2017-02-06T00:05:35.892Z,1004.53
2017-02-06T00:06:44.598Z,1004.57
2017-02-06T00:07:53.301Z,1004.56
2017-02-06T00:09:01.978Z,1004.57
2017-02-06T00:10:10.678Z,1004.59
2017-02-06T00:11:19.381Z,1004.58
2017-02-06T00:12:28.069Z,1004.63
2017-02-06T00:13:36.758Z,1004.62
2017-02-06T00:14:45.462Z,1004.62
2017-02-06T00:15:54.564Z,1004.63
2017-02-06T00:17:03.254Z,1004.65
2017-02-06T00:18:11.953Z,1004.64
2017-02-06T00:19:20.644Z,1004.7
2017-02-06T00:20:29.325Z,1004.72
2017-02-06T00:21:38.829Z,1004.71
2017-02-06T00:22:47.559Z,1004.74
2017-02-06T00:23:56.238Z,1004.75
2017-02-06T00:25:04.937Z,1004.8
2017-02-06T00:26:14.425Z,1004.79
2017-02-06T00:27:23.109Z,1004.81
2017-02-06T00:28:32.196Z,1004.8
2017-02-06T00:29:41.277Z,1004.82
2017-02-06T00:30:49.992Z,1004.8
2017-02-06T00:31:58.695Z,1004.81
2017-02-06T00:33:07.418Z,1004.83
2017-02-06T00:34:16.503Z,1004.8
2017-02-06T00:35:25.596Z,1004.82
2017-02-06T00:36:35.063Z,1004.88
2017-02-06T00:37:43.760Z,1004.89
2017-02-06T00:38:52.868Z,1004.9
2017-02-06T00:40:01.543Z,1004.91
2017-02-06T00:41:10.235Z,1004.95
2017-02-06T00:42:18.929Z,1004.92
2017-02-06T00:43:28.019Z,1004.92
2017-02-06T00:44:36.715Z,1004.92
2017-02-06T00:45:45.394Z,1004.93
2017-02-06T00:46:54.478Z,1004.93
2017-02-06T00:48:03.182Z,1004.91
2017-02-06T00:49:12.258Z,1004.91
2017-02-06T00:50:21.343Z,1004.95
2017-02-06T00:51:30.061Z,1004.93
2017-02-06T00:52:38.742Z,1004.94
2017-02-06T00:53:47.414Z,1005
2017-02-06T00:54:56.121Z,1004.97
2017-02-06T00:56:04.807Z,1004.97
2017-02-06T00:57:13.494Z,1005.02
2017-02-06T00:58:22.582Z,1004.96
2017-02-06T00:59:31.267Z,1005.03
2017-02-06T01:00:40.363Z,1005.03
2017-02-06T01:01:49.052Z,1005.06
2017-02-06T01:02:57.731Z,1005.03
2017-02-06T01:04:06.432Z,1005
2017-02-06T01:05:15.131Z,1005.01
2017-02-06T01:06:23.807Z,1005.02
2017-02-06T01:07:32.908Z,1005.03
2017-02-06T01:08:41.999Z,1005.02
2017-02-06T01:09:50.684Z,1005.03
2017-02-06T01:10:59.385Z,1005.04
2017-02-06T01:12:08.081Z,1005.05
2017-02-06T01:13:16.769Z,1005.08
2017-02-06T01:14:25.854Z,1005.08
2017-02-06T01:15:34.555Z,1005.12
2017-02-06T01:16:43.624Z,1005.13
2017-02-06T01:17:52.712Z,1005.14
2017-02-06T01:19:01.415Z,1005.15
2017-02-06T01:20:10.487Z,1005.14
2017-02-06T01:21:19.168Z,1005.19
2017-02-06T01:22:28.277Z,1005.22
2017-02-06T01:23:36.963Z,1005.28
2017-02-06T01:24:45.643Z,1005.29
2017-02-06T01:25:54.344Z,1005.34
2017-02-06T01:27:03.038Z,1005.35
2017-02-06T01:28:12.129Z,1005.39
2017-02-06T01:29:20.802Z,1005.42
2017-02-06T01:30:29.487Z,1005.4
2017-02-06T01:31:38.192Z,1005.43
2017-02-06T01:32:46.875Z,1005.46
2017-02-06T01:33:55.558Z,1005.51
2017-02-06T01:35:04.260Z,1005.51
2017-02-06T01:36:12.955Z,1005.51
2017-02-06T01:37:21.629Z,1005.54
2017-02-06T01:38:30.337Z,1005.57
2017-02-06T01:39:39.433Z,1005.61
2017-02-06T01:40:48.121Z,1005.56
2017-02-06T01:41:57.204Z,1005.59
2017-02-06T01:43:06.282Z,1005.61
2017-02-06T01:44:15.380Z,1005.6
2017-02-06T01:45:24.092Z,1005.65
2017-02-06T01:46:33.162Z,1005.64
2017-02-06T01:47:41.863Z,1005.68
2017-02-06T01:48:50.555Z,1005.64
2017-02-06T01:49:59.238Z,1005.64
2017-02-06T01:51:08.324Z,1005.72
2017-02-06T01:52:17.051Z,1005.75
2017-02-06T01:53:25.723Z,1005.74
2017-02-06T01:54:34.811Z,1005.75
2017-02-06T01:55:43.897Z,1005.8
2017-02-06T01:56:52.976Z,1005.82
2017-02-06T01:58:01.678Z,1005.88
2017-02-06T01:59:10.348Z,1005.89
2017-02-06T02:00:19.038Z,1005.88
2017-02-06T02:01:27.748Z,1005.94
2017-02-06T02:02:36.433Z,1005.95
2017-02-06T02:03:45.124Z,1005.95
2017-02-06T02:04:53.828Z,1005.98
2017-02-06T02:06:02.905Z,1006.02
2017-02-06T02:07:11.588Z,1006.01
2017-02-06T02:08:20.293Z,1006.02
2017-02-06T02:09:28.978Z,1006.06
2017-02-06T02:10:37.661Z,1006.09
2017-02-06T02:11:46.355Z,1006.07
2017-02-06T02:12:55.047Z,1006.12
2017-02-06T02:14:03.746Z,1006.16
2017-02-06T02:15:12.827Z,1006.18
2017-02-06T02:16:21.902Z,1006.18
2017-02-06T02:17:30.608Z,1006.22
2017-02-06T02:18:39.291Z,1006.23
2017-02-06T02:19:48.271Z,1006.24
2017-02-06T02:20:56.975Z,1006.28
2017-02-06T02:22:05.674Z,1006.32
2017-02-06T02:23:14.351Z,1006.32
2017-02-06T02:24:23.050Z,1006.31
2017-02-06T02:25:31.755Z,1006.38
2017-02-06T02:26:40.442Z,1006.39
2017-02-06T02:27:49.139Z,1006.41
2017-02-06T02:28:57.863Z,1006.43
2017-02-06T02:30:06.958Z,1006.5
2017-02-06T02:31:15.656Z,1006.52
2017-02-06T02:32:24.770Z,1006.55
2017-02-06T02:33:33.874Z,1006.53
2017-02-06T02:34:42.963Z,1006.57
2017-02-06T02:35:52.035Z,1006.64
2017-02-06T02:37:00.720Z,1006.66
2017-02-06T02:38:09.421Z,1006.71
2017-02-06T02:39:18.096Z,1006.72
2017-02-06T02:40:27.178Z,1006.78
2017-02-06T02:41:35.866Z,1006.81
2017-02-06T02:42:44.956Z,1006.86
2017-02-06T02:43:54.037Z,1006.82
2017-02-06T02:45:02.731Z,1006.88
2017-02-06T02:46:11.810Z,1006.91
2017-02-06T02:47:20.517Z,1006.92
2017-02-06T02:48:29.191Z,1006.96
2017-02-06T02:49:37.886Z,1006.99
2017-02-06T02:50:47.386Z,1006.98
2017-02-06T02:51:56.068Z,1007.01
2017-02-06T02:53:04.748Z,1007.01
2017-02-06T02:54:13.454Z,1007.02
2017-02-06T02:55:22.547Z,1007.06
2017-02-06T02:56:31.638Z,1007.04
2017-02-06T02:57:40.321Z,1007.04
2017-02-06T02:58:49.018Z,1007.04
2017-02-06T02:59:58.511Z,1007.06
2017-02-06T03:01:07.588Z,1007.08
2017-02-06T03:02:16.269Z,1007.08
2017-02-06T03:03:24.976Z,1007.11
2017-02-06T03:04:33.657Z,1007.18
2017-02-06T03:05:42.337Z,1007.19
2017-02-06T03:06:51.047Z,1007.26
2017-02-06T03:08:00.139Z,1007.23
2017-02-06T03:09:09.211Z,1007.25
2017-02-06T03:10:17.901Z,1007.26
2017-02-06T03:11:26.598Z,1007.3
2017-02-06T03:12:35.282Z,1007.32
2017-02-06T03:13:43.973Z,1007.33
2017-02-06T03:14:53.471Z,1007.36
2017-02-06T03:16:02.155Z,1007.41
2017-02-06T03:17:11.242Z,1007.41
2017-02-06T03:18:19.944Z,1007.38
2017-02-06T03:19:29.029Z,1007.37
2017-02-06T03:20:37.741Z,1007.44
2017-02-06T03:21:46.455Z,1007.44
2017-02-06T03:22:55.538Z,1007.47
2017-02-06T03:24:04.210Z,1007.48
2017-02-06T03:25:12.907Z,1007.5
2017-02-06T03:26:21.598Z,1007.45
2017-02-06T03:27:30.693Z,1007.49
2017-02-06T03:28:39.386Z,1007.58
2017-02-06T03:29:48.457Z,1007.55
2017-02-06T03:30:57.169Z,1007.57
2017-02-06T03:32:06.650Z,1007.62
2017-02-06T03:33:15.334Z,1007.64
2017-02-06T03:34:24.030Z,1007.67
2017-02-06T03:35:32.725Z,1007.69
2017-02-06T03:36:41.410Z,1007.71
2017-02-06T03:37:50.106Z,1007.69
2017-02-06T03:38:58.802Z,1007.7
2017-02-06T03:40:07.883Z,1007.74
2017-02-06T03:41:16.962Z,1007.81
2017-02-06T03:42:25.648Z,1007.82
2017-02-06T03:43:34.346Z,1007.85
2017-02-06T03:44:43.046Z,1007.85
2017-02-06T03:45:51.717Z,1007.83
2017-02-06T03:47:00.416Z,1007.88
2017-02-06T03:48:09.108Z,1007.88
2017-02-06T03:49:17.792Z,1007.88
2017-02-06T03:50:26.487Z,1007.89
2017-02-06T03:51:35.589Z,1007.95
2017-02-06T03:52:44.271Z,1007.94
2017-02-06T03:53:52.962Z,1007.94
2017-02-06T03:55:01.651Z,1007.97
2017-02-06T03:56:10.349Z,1008
2017-02-06T03:57:19.041Z,1008
2017-02-06T03:58:27.722Z,1008.07
2017-02-06T03:59:36.813Z,1008.04
2017-02-06T04:00:45.520Z,1008.07
2017-02-06T04:01:54.587Z,1008.09
2017-02-06T04:03:03.273Z,1008.1
2017-02-06T04:04:11.973Z,1008.1
2017-02-06T04:05:20.660Z,1008.12
2017-02-06T04:06:29.356Z,1008.12
2017-02-06T04:07:38.058Z,1008.15
2017-02-06T04:08:46.748Z,1008.11
2017-02-06T04:09:55.844Z,1008.14
2017-02-06T04:11:04.925Z,1008.16
2017-02-06T04:12:13.610Z,1008.21
2017-02-06T04:13:22.710Z,1008.18
2017-02-06T04:14:31.396Z,1008.22
2017-02-06T04:15:40.085Z,1008.21
2017-02-06T04:16:48.793Z,1008.22
2017-02-06T04:17:57.879Z,1008.21
2017-02-06T04:19:06.961Z,1008.22
2017-02-06T04:20:15.662Z,1008.22
2017-02-06T04:21:24.759Z,1008.23
2017-02-06T04:22:33.824Z,1008.27
2017-02-06T04:23:42.532Z,1008.31
2017-02-06T04:24:51.609Z,1008.32
2017-02-06T04:26:00.707Z,1008.34
2017-02-06T04:27:09.401Z,1008.35
2017-02-06T04:28:18.473Z,1008.38
2017-02-06T04:29:27.171Z,1008.38
2017-02-06T04:30:35.866Z,1008.35
2017-02-06T04:31:44.548Z,1008.38
2017-02-06T04:32:53.253Z,1008.36
2017-02-06T04:34:01.945Z,1008.38
2017-02-06T04:35:10.626Z,1008.39
2017-02-06T04:36:19.323Z,1008.45
2017-02-06T04:37:28.030Z,1008.44
2017-02-06T04:38:36.709Z,1008.47
2017-02-06T04:39:45.397Z,1008.47
2017-02-06T04:40:54.079Z,1008.43
2017-02-06T04:42:03.160Z,1008.44
2017-02-06T04:43:11.854Z,1008.48
2017-02-06T04:44:20.931Z,1008.48
2017-02-06T04:45:29.627Z,1008.53
2017-02-06T04:46:38.726Z,1008.53
2017-02-06T04:47:48.202Z,1008.57
2017-02-06T04:48:57.288Z,1008.53
2017-02-06T04:50:06.383Z,1008.54
2017-02-06T04:51:15.459Z,1008.53
2017-02-06T04:52:24.533Z,1008.55
2017-02-06T04:53:33.227Z,1008.57
2017-02-06T04:54:41.925Z,1008.58
2017-02-06T04:55:51.025Z,1008.63
2017-02-06T04:56:59.707Z,1008.6
2017-02-06T04:58:08.791Z,1008.64
2017-02-06T04:59:17.894Z,1008.67
2017-02-06T05:00:26.576Z,1008.66
2017-02-06T05:01:35.266Z,1008.67
2017-02-06T05:02:43.962Z,1008.68
2017-02-06T05:03:52.651Z,1008.69
2017-02-06T05:05:01.729Z,1008.7
2017-02-06T05:06:10.831Z,1008.74
2017-02-06T05:07:19.533Z,1008.74
2017-02-06T05:08:28.204Z,1008.76
2017-02-06T05:09:36.897Z,1008.76
2017-02-06T05:10:45.602Z,1008.75
2017-02-06T05:11:54.279Z,1008.74
2017-02-06T05:13:02.975Z,1008.72
2017-02-06T05:14:11.684Z,1008.75
2017-02-06T05:15:20.360Z,1008.74
2017-02-06T05:16:29.088Z,1008.75
2017-02-06T05:17:37.784Z,1008.75
2017-02-06T05:18:46.473Z,1008.79
2017-02-06T05:19:55.153Z,1008.76
2017-02-06T05:21:04.261Z,1008.81
2017-02-06T05:22:13.345Z,1008.79
2017-02-06T05:23:22.044Z,1008.84
2017-02-06T05:24:31.114Z,1008.88
2017-02-06T05:25:39.848Z,1008.88
2017-02-06T05:26:48.949Z,1008.87
2017-02-06T05:27:57.638Z,1008.83
2017-02-06T05:29:06.712Z,1008.9
2017-02-06T05:30:15.811Z,1008.91
2017-02-06T05:31:24.506Z,1008.95
2017-02-06T05:32:33.191Z,1008.92
2017-02-06T05:33:41.892Z,1008.93
2017-02-06T05:34:50.586Z,1009.01
2017-02-06T05:35:59.264Z,1008.99
2017-02-06T05:37:08.360Z,1009.02
2017-02-06T05:38:17.043Z,1009.01
2017-02-06T05:39:25.746Z,1009.06
2017-02-06T05:40:34.440Z,1009.06
2017-02-06T05:41:43.516Z,1009.14
2017-02-06T05:42:52.617Z,1009.16
2017-02-06T05:44:01.312Z,1009.17
2017-02-06T05:45:09.997Z,1009.22
2017-02-06T05:46:18.705Z,1009.21
2017-02-06T05:47:27.397Z,1009.21
2017-02-06T05:48:36.470Z,1009.27
2017-02-06T05:49:45.553Z,1009.28
2017-02-06T05:50:54.264Z,1009.31
2017-02-06T05:52:02.954Z,1009.29
2017-02-06T05:53:11.642Z,1009.33
2017-02-06T05:54:20.716Z,1009.35
2017-02-06T05:55:29.817Z,1009.35
2017-02-06T05:56:38.913Z,1009.39
2017-02-06T05:57:47.592Z,1009.42
2017-02-06T05:58:56.670Z,1009.37
2017-02-06T06:00:05.373Z,1009.39
2017-02-06T06:01:14.450Z,1009.42
2017-02-06T06:02:23.549Z,1009.42
2017-02-06T06:03:32.248Z,1009.46
2017-02-06T06:04:41.328Z,1009.44
2017-02-06T06:05:50.003Z,1009.49
2017-02-06T06:06:59.124Z,1009.51
2017-02-06T06:08:08.215Z,1009.51
2017-02-06T06:09:16.923Z,1009.48
2017-02-06T06:10:26.427Z,1009.5
2017-02-06T06:11:35.113Z,1009.5
2017-02-06T06:12:43.806Z,1009.49
2017-02-06T06:13:52.499Z,1009.56
2017-02-06T06:15:01.177Z,1009.58
2017-02-06T06:16:10.283Z,1009.66
2017-02-06T06:17:18.966Z,1009.78
2017-02-06T06:18:28.042Z,1009.84
2017-02-06T06:19:36.740Z,1009.84
2017-02-06T06:20:45.838Z,1009.83
2017-02-06T06:21:54.582Z,1009.86
2017-02-06T06:23:03.658Z,1009.85
2017-02-06T06:24:12.339Z,1009.94
2017-02-06T06:25:21.045Z,1009.97
2017-02-06T06:26:30.560Z,1009.97
2017-02-06T06:27:39.248Z,1010.04
2017-02-06T06:28:48.747Z,1010.03
2017-02-06T06:29:57.447Z,1010.03
2017-02-06T06:31:06.124Z,1010.08
2017-02-06T06:32:14.864Z,1010.1
2017-02-06T06:33:23.959Z,1010.12
2017-02-06T06:34:32.631Z,1010.12
2017-02-06T06:35:41.328Z,1010.15
2017-02-06T06:36:50.011Z,1010.14
2017-02-06T06:37:59.117Z,1010.22
2017-02-06T06:39:07.813Z,1010.15
2017-02-06T06:40:16.497Z,1010.17
2017-02-06T06:41:25.595Z,1010.21
2017-02-06T06:42:34.293Z,1010.25
2017-02-06T06:43:42.975Z,1010.2
2017-02-06T06:44:51.667Z,1010.26
2017-02-06T06:46:00.775Z,1010.27
2017-02-06T06:47:09.461Z,1010.3
2017-02-06T06:48:18.933Z,1010.36
2017-02-06T06:49:27.636Z,1010.35
2017-02-06T06:50:36.332Z,1010.4
2017-02-06T06:51:45.030Z,1010.37
2017-02-06T06:52:53.706Z,1010.38
2017-02-06T06:54:02.793Z,1010.44
2017-02-06T06:55:11.497Z,1010.45
2017-02-06T06:56:20.183Z,1010.44
2017-02-06T06:57:28.877Z,1010.48
2017-02-06T06:58:37.974Z,1010.5
2017-02-06T06:59:47.056Z,1010.53
2017-02-06T07:00:55.733Z,1010.56
2017-02-06T07:02:04.838Z,1010.58
2017-02-06T07:03:13.535Z,1010.63
2017-02-06T07:04:22.609Z,1010.63
2017-02-06T07:05:31.317Z,1010.68
2017-02-06T07:06:40.010Z,1010.61
2017-02-06T07:07:48.683Z,1010.65
2017-02-06T07:08:57.387Z,1010.63
2017-02-06T07:10:06.479Z,1010.65
2017-02-06T07:11:15.166Z,1010.69
2017-02-06T07:12:23.861Z,1010.67
2017-02-06T07:13:32.569Z,1010.7
2017-02-06T07:14:41.647Z,1010.7
2017-02-06T07:15:50.732Z,1010.75
2017-02-06T07:17:00.230Z,1010.74
2017-02-06T07:18:08.920Z,1010.78
2017-02-06T07:19:17.607Z,1010.81
2017-02-06T07:20:26.691Z,1010.81
2017-02-06T07:21:35.390Z,1010.82
2017-02-06T07:22:44.497Z,1010.79
2017-02-06T07:23:53.174Z,1010.88
2017-02-06T07:25:01.868Z,1010.88
2017-02-06T07:26:10.568Z,1010.89
2017-02-06T07:27:19.652Z,1010.93
2017-02-06T07:28:28.337Z,1010.94
2017-02-06T07:29:37.035Z,1010.95
2017-02-06T07:30:46.569Z,1011
2017-02-06T07:32:00.823Z,1011.01
2017-02-06T07:33:11.907Z,1011.09
2017-02-06T07:34:20.606Z,1011.13
2017-02-06T07:35:29.300Z,1011.12
2017-02-06T07:36:37.988Z,1011.13
2017-02-06T07:37:46.674Z,1011.17
2017-02-06T07:38:55.377Z,1011.16
2017-02-06T07:40:04.062Z,1011.16
2017-02-06T07:41:12.750Z,1011.18
2017-02-06T07:42:21.447Z,1011.2
2017-02-06T07:43:30.533Z,1011.21
2017-02-06T07:44:39.216Z,1011.26
2017-02-06T07:45:47.922Z,1011.27
2017-02-06T07:46:56.626Z,1011.32
2017-02-06T07:48:05.310Z,1011.36
2017-02-06T07:49:14.396Z,1011.4
2017-02-06T07:50:23.074Z,1011.41
2017-02-06T07:51:31.779Z,1011.46
2017-02-06T07:52:40.878Z,1011.5
2017-02-06T07:53:49.556Z,1011.55
2017-02-06T07:54:58.647Z,1011.58
2017-02-06T07:56:07.339Z,1011.59
2017-02-06T07:57:16.040Z,1011.61
2017-02-06T07:58:24.729Z,1011.6
2017-02-06T07:59:33.439Z,1011.6
2017-02-06T08:00:42.121Z,1011.6
2017-02-06T08:01:51.213Z,1011.62
2017-02-06T08:02:59.913Z,1011.6
2017-02-06T08:04:08.597Z,1011.61
2017-02-06T08:05:17.293Z,1011.6
2017-02-06T08:06:25.982Z,1011.65
2017-02-06T08:07:34.686Z,1011.68
2017-02-06T08:08:43.390Z,1011.69
2017-02-06T08:09:52.078Z,1011.75
2017-02-06T08:11:00.764Z,1011.72
2017-02-06T08:12:10.470Z,1011.73
2017-02-06T08:13:23.603Z,1011.73
2017-02-06T08:14:38.421Z,1011.75
2017-02-06T08:15:52.472Z,1011.78
2017-02-06T08:17:10.359Z,1011.81
2017-02-06T08:18:24.110Z,1011.84
2017-02-06T08:19:38.196Z,1011.82
2017-02-06T08:20:51.912Z,1011.85
2017-02-06T08:22:06.671Z,1011.87
2017-02-06T08:23:20.634Z,1011.89
2017-02-06T08:24:35.998Z,1011.93
2017-02-06T08:25:49.424Z,1011.96
2017-02-06T08:27:04.782Z,1011.99
2017-02-06T08:28:17.597Z,1012.01
2017-02-06T08:29:28.571Z,1012
2017-02-06T08:30:40.795Z,1011.99
2017-02-06T08:31:50.853Z,1012.02
2017-02-06T08:33:03.147Z,1012.03
2017-02-06T08:34:15.296Z,1012.06
2017-02-06T08:35:26.650Z,1012.09
2017-02-06T08:36:37.002Z,1012.08
2017-02-06T08:37:49.722Z,1012.11
2017-02-06T08:39:00.561Z,1012.08
2017-02-06T08:40:10.733Z,1012.15
2017-02-06T08:41:22.933Z,1012.14
2017-02-06T08:42:34.462Z,1012.18
2017-02-06T08:43:45.738Z,1012.2
2017-02-06T08:44:55.321Z,1012.2
2017-02-06T08:46:04.656Z,1012.23
2017-02-06T08:47:16.358Z,1012.23
2017-02-06T08:48:25.040Z,1012.23
2017-02-06T08:49:33.728Z,1012.26
2017-02-06T08:50:42.824Z,1012.3
2017-02-06T08:51:51.525Z,1012.28
2017-02-06T08:53:01.128Z,1012.29
2017-02-06T08:54:09.813Z,1012.23
2017-02-06T08:55:18.504Z,1012.24
2017-02-06T08:56:27.212Z,1012.25
2017-02-06T08:57:35.897Z,1012.24
2017-02-06T08:58:44.591Z,1012.26
2017-02-06T08:59:53.291Z,1012.26
2017-02-06T09:01:01.981Z,1012.31
2017-02-06T09:02:10.665Z,1012.34
2017-02-06T09:03:19.380Z,1012.34
2017-02-06T09:04:28.081Z,1012.34
2017-02-06T09:05:36.766Z,1012.39
2017-02-06T09:06:45.869Z,1012.37
2017-02-06T09:07:54.559Z,1012.39
2017-02-06T09:09:03.236Z,1012.38
2017-02-06T09:10:11.933Z,1012.38
2017-02-06T09:11:20.637Z,1012.41
2017-02-06T09:12:29.320Z,1012.44
2017-02-06T09:13:38.018Z,1012.43
2017-02-06T09:14:46.720Z,1012.43
2017-02-06T09:15:55.405Z,1012.47
2017-02-06T09:17:04.100Z,1012.46
2017-02-06T09:18:12.813Z,1012.53
2017-02-06T09:19:21.894Z,1012.51
2017-02-06T09:20:30.597Z,1012.54
2017-02-06T09:21:39.670Z,1012.54
2017-02-06T09:22:48.371Z,1012.53
2017-02-06T09:23:57.083Z,1012.55
2017-02-06T09:25:05.756Z,1012.51
2017-02-06T09:26:14.451Z,1012.57
2017-02-06T09:27:23.152Z,1012.61
2017-02-06T09:28:31.847Z,1012.63
2017-02-06T09:29:40.936Z,1012.67
2017-02-06T09:30:49.641Z,1012.68
2017-02-06T09:31:58.328Z,1012.68
2017-02-06T09:33:07.396Z,1012.69
2017-02-06T09:34:16.105Z,1012.73
2017-02-06T09:35:24.800Z,1012.71
2017-02-06T09:36:33.899Z,1012.76
2017-02-06T09:37:42.584Z,1012.78
2017-02-06T09:38:52.059Z,1012.82
2017-02-06T09:40:01.159Z,1012.85
2017-02-06T09:41:09.854Z,1012.9
2017-02-06T09:42:18.536Z,1012.99
2017-02-06T09:43:27.235Z,1013.05
2017-02-06T09:44:35.926Z,1013.04
2017-02-06T09:45:45.134Z,1013.1
2017-02-06T09:46:53.834Z,1013.1
2017-02-06T09:48:02.935Z,1013.09
2017-02-06T09:49:11.632Z,1013.1
2017-02-06T09:50:21.114Z,1013.14
2017-02-06T09:51:30.190Z,1013.15
2017-02-06T09:52:38.894Z,1013.15
2017-02-06T09:53:47.982Z,1013.15
2017-02-06T09:54:56.669Z,1013.16
2017-02-06T09:56:05.376Z,1013.15
2017-02-06T09:57:14.075Z,1013.16
2017-02-06T09:58:23.183Z,1013.18
2017-02-06T09:59:32.277Z,1013.21
2017-02-06T10:00:41.381Z,1013.17
2017-02-06T10:01:50.092Z,1013.2
2017-02-06T10:02:59.249Z,1013.19
2017-02-06T10:04:08.427Z,1013.24
2017-02-06T10:05:17.129Z,1013.21
2017-02-06T10:06:25.840Z,1013.22
2017-02-06T10:07:34.522Z,1013.22
2017-02-06T10:08:43.612Z,1013.22
2017-02-06T10:09:52.311Z,1013.22
2017-02-06T10:11:00.996Z,1013.28
2017-02-06T10:12:09.699Z,1013.3
2017-02-06T10:13:18.405Z,1013.29
2017-02-06T10:14:27.093Z,1013.3
2017-02-06T10:15:36.168Z,1013.32
2017-02-06T10:16:44.883Z,1013.36
2017-02-06T10:17:53.975Z,1013.38
2017-02-06T10:19:02.684Z,1013.41
2017-02-06T10:20:11.363Z,1013.44
2017-02-06T10:21:20.058Z,1013.47
2017-02-06T10:22:29.166Z,1013.46
2017-02-06T10:23:38.258Z,1013.46
2017-02-06T10:24:46.947Z,1013.49
2017-02-06T10:25:56.046Z,1013.46
2017-02-06T10:27:04.733Z,1013.41
2017-02-06T10:28:13.420Z,1013.39
2017-02-06T10:29:22.524Z,1013.4
2017-02-06T10:30:31.228Z,1013.41
2017-02-06T10:31:39.908Z,1013.42
2017-02-06T10:32:48.998Z,1013.41
2017-02-06T10:33:57.687Z,1013.44
2017-02-06T10:35:07.192Z,1013.44
2017-02-06T10:36:15.933Z,1013.48
2017-02-06T10:37:25.364Z,1013.5
2017-02-06T10:38:34.071Z,1013.48
2017-02-06T10:39:43.154Z,1013.52
2017-02-06T10:40:51.840Z,1013.51
2017-02-06T10:42:01.367Z,1013.52
2017-02-06T10:43:10.113Z,1013.53
2017-02-06T10:44:19.192Z,1013.57
2017-02-06T10:45:27.893Z,1013.54
2017-02-06T10:46:36.600Z,1013.58
2017-02-06T10:47:45.679Z,1013.58
2017-02-06T10:48:54.380Z,1013.49
2017-02-06T10:50:03.056Z,1013.54
2017-02-06T10:51:11.759Z,1013.52
2017-02-06T10:52:20.460Z,1013.47
2017-02-06T10:53:29.151Z,1013.47
2017-02-06T10:54:37.850Z,1013.48
2017-02-06T10:55:46.556Z,1013.52
2017-02-06T10:56:56.026Z,1013.53
2017-02-06T10:58:04.816Z,1013.53
2017-02-06T10:59:15.215Z,1013.57
2017-02-06T11:00:24.480Z,1013.58
2017-02-06T11:01:34.292Z,1013.56
2017-02-06T11:02:43.923Z,1013.54
2017-02-06T11:03:53.205Z,1013.55
2017-02-06T11:05:03.195Z,1013.56
2017-02-06T11:06:12.925Z,1013.53
2017-02-06T11:07:22.073Z,1013.52
2017-02-06T11:08:31.553Z,1013.53
2017-02-06T11:09:40.647Z,1013.52
2017-02-06T11:10:49.356Z,1013.51
2017-02-06T11:11:58.045Z,1013.52
2017-02-06T11:13:06.744Z,1013.55
2017-02-06T11:14:15.843Z,1013.5
2017-02-06T11:15:24.528Z,1013.51
2017-02-06T11:16:34.024Z,1013.53
2017-02-06T11:17:42.714Z,1013.48
2017-02-06T11:18:51.423Z,1013.47
2017-02-06T11:20:00.125Z,1013.48
2017-02-06T11:21:09.200Z,1013.5
2017-02-06T11:22:18.791Z,1013.48
2017-02-06T11:23:27.524Z,1013.48
2017-02-06T11:24:36.212Z,1013.5
2017-02-06T11:25:44.904Z,1013.49
2017-02-06T11:26:53.811Z,1013.48
2017-02-06T11:28:02.894Z,1013.48
2017-02-06T11:29:11.586Z,1013.5
2017-02-06T11:30:20.296Z,1013.53
2017-02-06T11:31:28.994Z,1013.53
2017-02-06T11:32:37.699Z,1013.54
2017-02-06T11:33:46.776Z,1013.51
2017-02-06T11:34:55.461Z,1013.5
2017-02-06T11:36:04.172Z,1013.5
2017-02-06T11:37:13.257Z,1013.56
2017-02-06T11:38:21.957Z,1013.51
2017-02-06T11:39:30.657Z,1013.52
2017-02-06T11:40:39.347Z,1013.51
2017-02-06T11:41:48.039Z,1013.52
2017-02-06T11:42:57.552Z,1013.51
2017-02-06T11:44:06.240Z,1013.48
2017-02-06T11:45:14.931Z,1013.46
2017-02-06T11:46:23.630Z,1013.39
2017-02-06T11:47:32.312Z,1013.42
2017-02-06T11:48:41.023Z,1013.42
2017-02-06T11:49:49.723Z,1013.44
2017-02-06T11:50:58.445Z,1013.45
2017-02-06T11:52:07.154Z,1013.47
2017-02-06T11:53:15.851Z,1013.47
2017-02-06T11:54:24.549Z,1013.46
2017-02-06T11:55:33.256Z,1013.47
2017-02-06T11:56:41.966Z,1013.47
2017-02-06T11:57:51.048Z,1013.49
2017-02-06T11:58:59.755Z,1013.45
2017-02-06T12:00:08.468Z,1013.48
2017-02-06T12:01:17.159Z,1013.44
2017-02-06T12:02:26.255Z,1013.43
2017-02-06T12:03:34.935Z,1013.45
2017-02-06T12:04:43.639Z,1013.46
2017-02-06T12:05:52.338Z,1013.43
2017-02-06T12:07:01.823Z,1013.47
2017-02-06T12:08:10.523Z,1013.46
2017-02-06T12:09:19.234Z,1013.47
2017-02-06T12:10:27.909Z,1013.45
2017-02-06T12:11:36.605Z,1013.44
2017-02-06T12:12:46.146Z,1013.45
2017-02-06T12:13:54.857Z,1013.4
2017-02-06T12:15:03.585Z,1013.43
2017-02-06T12:16:12.279Z,1013.43
2017-02-06T12:17:20.967Z,1013.48
2017-02-06T12:18:29.691Z,1013.46
2017-02-06T12:19:38.386Z,1013.47
2017-02-06T12:20:47.084Z,1013.47
2017-02-06T12:21:55.786Z,1013.46
2017-02-06T12:23:04.474Z,1013.42
2017-02-06T12:24:13.558Z,1013.44
2017-02-06T12:25:22.676Z,1013.4
2017-02-06T12:26:31.370Z,1013.38
2017-02-06T12:27:40.060Z,1013.35
2017-02-06T12:28:48.772Z,1013.39
2017-02-06T12:29:57.481Z,1013.37
2017-02-06T12:31:06.585Z,1013.41
2017-02-06T12:32:15.400Z,1013.36
2017-02-06T12:33:24.489Z,1013.4
2017-02-06T12:34:33.591Z,1013.33
2017-02-06T12:35:42.677Z,1013.36
2017-02-06T12:36:51.500Z,1013.36
2017-02-06T12:38:00.210Z,1013.35
2017-02-06T12:39:09.449Z,1013.34
2017-02-06T12:40:18.131Z,1013.34
2017-02-06T12:41:26.917Z,1013.39
2017-02-06T12:42:35.905Z,1013.38
2017-02-06T12:43:44.597Z,1013.41
2017-02-06T12:44:53.699Z,1013.39
2017-02-06T12:46:02.387Z,1013.4
2017-02-06T12:47:11.093Z,1013.37
2017-02-06T12:48:19.791Z,1013.39
2017-02-06T12:49:28.473Z,1013.4
2017-02-06T12:50:37.181Z,1013.46
2017-02-06T12:51:45.884Z,1013.5
2017-02-06T12:52:54.966Z,1013.55
2017-02-06T12:54:03.658Z,1013.56
2017-02-06T12:55:12.372Z,1013.57
2017-02-06T12:56:21.052Z,1013.58
2017-02-06T12:57:29.752Z,1013.57
2017-02-06T12:58:38.847Z,1013.55
2017-02-06T12:59:47.533Z,1013.52
2017-02-06T13:00:56.227Z,1013.53
2017-02-06T13:02:04.953Z,1013.52
2017-02-06T13:03:14.051Z,1013.53
2017-02-06T13:04:23.130Z,1013.51
2017-02-06T13:05:32.228Z,1013.49
2017-02-06T13:06:41.361Z,1013.5
2017-02-06T13:07:50.437Z,1013.53
2017-02-06T13:08:59.586Z,1013.52
2017-02-06T13:10:08.300Z,1013.52
2017-02-06T13:11:16.986Z,1013.51
2017-02-06T13:12:26.073Z,1013.55
2017-02-06T13:13:34.782Z,1013.53
2017-02-06T13:14:43.874Z,1013.51
2017-02-06T13:15:52.574Z,1013.56
2017-02-06T13:17:01.646Z,1013.54
2017-02-06T13:18:10.349Z,1013.57
2017-02-06T13:19:19.051Z,1013.51
2017-02-06T13:20:27.785Z,1013.5
2017-02-06T13:21:36.477Z,1013.52
2017-02-06T13:22:45.584Z,1013.52
2017-02-06T13:23:54.661Z,1013.45
2017-02-06T13:25:03.764Z,1013.46
2017-02-06T13:26:12.868Z,1013.44
2017-02-06T13:27:21.559Z,1013.44
2017-02-06T13:28:30.653Z,1013.44
2017-02-06T13:29:39.743Z,1013.48
2017-02-06T13:30:49.100Z,1013.49
2017-02-06T13:31:58.033Z,1013.5
2017-02-06T13:33:06.711Z,1013.51
2017-02-06T13:34:15.405Z,1013.53
2017-02-06T13:35:24.111Z,1013.51
2017-02-06T13:36:32.803Z,1013.56
2017-02-06T13:37:41.488Z,1013.61
2017-02-06T13:38:50.631Z,1013.59
2017-02-06T13:40:00.119Z,1013.59
2017-02-06T13:41:08.807Z,1013.59
2017-02-06T13:42:17.508Z,1013.63
2017-02-06T13:43:26.208Z,1013.63
2017-02-06T13:44:34.907Z,1013.6
2017-02-06T13:45:43.591Z,1013.57
2017-02-06T13:46:52.673Z,1013.56
2017-02-06T13:48:02.181Z,1013.58
2017-02-06T13:49:11.263Z,1013.55
2017-02-06T13:50:19.939Z,1013.56
2017-02-06T13:51:28.647Z,1013.58
2017-02-06T13:52:37.352Z,1013.59
2017-02-06T13:53:46.025Z,1013.6
2017-02-06T13:54:54.731Z,1013.64
2017-02-06T13:56:04.622Z,1013.65
2017-02-06T13:57:13.309Z,1013.68
2017-02-06T13:58:22.012Z,1013.66